Terminal Aerodrome Forecast
Issued by NWS

Home | Current Version | Previous Version | Text Only | Print | Product List | Glossary On
Versions: 1 2 3 4 5 6 7 8 9 10 11 12 13 14 15
345
FTUS42 KJAX 160520
TAFCRG
TAF
KCRG 160520Z 1606/1706 32007KT P6SM BKN090 OVC250
     FM161100 36004KT P6SM BKN100 BKN250
     FM161600 03006KT P6SM SCT100
     FM170100 08002KT P6SM SCT120 SCT250=

USA.gov is the U.S. government's official web portal to all federal, state and local government web resources and services.